Time;durP1;ratioP1;P1;durP2;ratioP2;P2;SDS_P1;SDS_P2;PMS_P1;PMS_P2;Temp;Humidity;BMP_temperature;BMP_pressure;BME280_temperature;BME280_humidity;BME280_pressure;Samples;Min_cycle;Max_cycle;Signal;HPM_P1;HPM_P2
2023/01/23 00:00:38;;;;;;;;;42.00;27.25;;;;;3.39;67.85;102527.22;5096592;27;46210;-75
2023/01/23 00:03:03;;;;;;;;;30.75;26.25;;;;;3.29;68.02;102510.91;5096546;27;45580;-77
2023/01/23 00:09:30;;;;;;;;;30.00;25.00;;;;;3.16;67.98;102490.34;5091998;27;46132;-76
2023/01/23 00:11:56;;;;;;;;;38.50;31.50;;;;;3.40;68.13;102539.31;5098109;27;45665;-77
2023/01/23 00:14:21;;;;;;;;;24.75;21.25;;;;;3.41;68.14;102528.06;5097628;27;45529;-77
2023/01/23 00:16:47;;;;;;;;;46.25;29.25;;;;;3.44;67.90;102540.13;5096107;27;46470;-78
2023/01/23 00:19:12;;;;;;;;;29.25;26.50;;;;;3.44;67.93;102527.19;5095996;27;46048;-77
2023/01/23 00:21:40;;;;;;;;;25.00;22.50;;;;;3.43;67.82;102533.22;5095849;27;45642;-75
2023/01/23 00:24:06;;;;;;;;;38.50;29.25;;;;;3.38;67.97;102526.38;5095936;27;45553;-76
2023/01/23 00:26:35;;;;;;;;;22.50;19.50;;;;;3.35;67.84;102522.94;5095514;27;46212;-78
2023/01/23 00:29:01;;;;;;;;;36.50;29.25;;;;;3.38;67.56;102536.72;5095723;27;46814;-76
2023/01/23 00:31:30;;;;;;;;;42.50;33.25;;;;;3.34;68.04;102526.41;5096435;27;46109;-78
2023/01/23 00:34:00;;;;;;;;;36.00;33.00;;;;;3.35;68.22;102528.97;5095460;27;45536;-77
2023/01/23 00:36:32;;;;;;;;;28.00;24.25;;;;;3.37;67.95;102522.06;5095620;27;46623;-76
2023/01/23 00:38:58;;;;;;;;;34.25;30.50;;;;;3.38;67.92;102539.31;5096003;27;46109;-78
2023/01/23 00:41:24;;;;;;;;;33.75;29.50;;;;;3.40;67.78;102538.44;5077250;27;45694;-79
2023/01/23 00:43:51;;;;;;;;;39.75;29.00;;;;;3.35;68.23;102536.75;5096821;27;45824;-80
2023/01/23 00:46:17;;;;;;;;;38.25;30.75;;;;;3.37;68.10;102541.91;5097095;27;46350;-78
2023/01/23 00:48:42;;;;;;;;;30.50;27.25;;;;;3.39;68.19;102535.00;5098965;27;46195;-78
2023/01/23 00:54:29;;;;;;;;;31.00;25.00;;;;;3.38;67.94;102549.69;5098576;27;45628;-77
2023/01/23 00:56:54;;;;;;;;;41.25;28.00;;;;;3.40;68.19;102541.03;5112000;27;46690;-78
2023/01/23 00:59:19;;;;;;;;;32.50;27.25;;;;;3.41;68.23;102547.91;5095909;27;46014;-76
2023/01/23 01:01:45;;;;;;;;;32.00;24.75;;;;;3.41;68.17;102529.78;5095903;27;45603;-75
2023/01/23 01:04:10;;;;;;;;;32.00;26.50;;;;;3.44;67.92;102538.41;5095364;27;45619;-77
2023/01/23 01:06:36;;;;;;;;;34.50;26.00;;;;;3.47;68.11;102529.72;5096181;27;46199;-77
2023/01/23 01:09:01;;;;;;;;;37.00;31.00;;;;;3.37;67.89;102519.47;5096117;27;45686;-76
2023/01/23 01:11:27;;;;;;;;;33.50;28.00;;;;;3.49;68.13;102541.81;5096247;27;45702;-76
2023/01/23 01:13:53;;;;;;;;;41.25;33.75;;;;;3.50;67.98;102534.88;5077657;27;45586;-77
2023/01/23 01:16:18;;;;;;;;;33.75;26.25;;;;;3.43;68.00;102528.91;5094886;27;45734;-77
2023/01/23 01:18:46;;;;;;;;;36.00;28.75;;;;;3.50;68.26;102537.47;5094802;27;45674;-77
2023/01/23 01:24:34;;;;;;;;;36.50;34.50;;;;;3.48;67.94;102526.25;5094531;27;45743;-76
2023/01/23 01:27:00;;;;;;;;;42.25;34.75;;;;;3.47;68.11;102527.13;5094669;27;46624;-75
2023/01/23 01:29:25;;;;;;;;;29.75;23.00;;;;;3.31;68.05;102505.72;5094793;27;45580;-75
2023/01/23 01:31:50;;;;;;;;;38.25;29.75;;;;;3.43;68.23;102528.91;5094571;27;45633;-76
2023/01/23 01:34:19;;;;;;;;;38.75;31.25;;;;;3.23;68.29;102500.63;5076601;27;45546;-77
2023/01/23 01:40:12;;;;;;;;;36.50;33.00;;;;;3.01;68.32;102455.13;5094384;27;45747;-77
2023/01/23 01:42:50;;;;;;;;;33.00;26.25;;;;;3.35;68.46;102534.16;5094707;27;45755;-76
2023/01/23 01:45:54;;;;;;;;;38.50;28.50;;;;;3.34;68.46;102514.34;5091491;27;45465;-77
2023/01/23 01:48:23;;;;;;;;;30.00;23.75;;;;;3.34;68.39;102513.47;5094586;27;46446;-76
2023/01/23 01:50:48;;;;;;;;;33.25;24.50;;;;;3.09;68.43;102471.41;5093256;27;47691;-76
2023/01/23 01:53:14;;;;;;;;;41.50;30.25;;;;;3.23;68.44;102481.66;5094902;27;46024;-77
2023/01/23 01:55:39;;;;;;;;;37.25;32.00;;;;;3.23;68.68;102489.41;5094868;27;45764;-75
2023/01/23 01:58:06;;;;;;;;;38.50;29.75;;;;;3.32;68.65;102500.53;5094482;27;46261;-76
2023/01/23 02:00:34;;;;;;;;;45.25;29.00;;;;;3.08;68.63;102461.94;5095177;27;46204;-76
2023/01/23 02:03:02;;;;;;;;;34.00;29.75;;;;;3.38;68.39;102516.00;5094795;27;45924;-77
2023/01/23 02:05:35;;;;;;;;;40.00;31.00;;;;;3.10;68.32;102460.19;5095355;27;45901;-75
2023/01/23 02:08:22;;;;;;;;;33.00;26.00;;;;;3.38;68.37;102508.25;5110536;27;46436;-77
2023/01/23 02:11:21;;;;;;;;;;;;;;;;;;;;;
2023/01/23 02:14:06;;;;;;;;;31.75;26.50;;;;;3.10;68.61;102460.19;5019252;27;73383;-77
2023/01/23 02:17:20;;;;;;;;;;;;;;;;;;;;;
2023/01/23 02:23:04;;;;;;;;;51.25;32.75;;;;;3.37;68.53;102498.75;5095657;27;46196;-77
2023/01/23 02:25:44;;;;;;;;;38.00;29.50;;;;;3.38;68.25;102505.66;5096156;27;45673;-76
2023/01/23 02:28:15;;;;;;;;;32.75;29.00;;;;;3.23;68.77;102472.16;5094717;27;45750;-77
2023/01/23 02:30:42;;;;;;;;;34.50;29.00;;;;;3.35;68.63;102495.31;5094072;27;47480;-77
2023/01/23 02:33:08;;;;;;;;;33.00;23.00;;;;;3.41;68.40;102509.06;5075827;27;48222;-75
2023/01/23 02:39:09;;;;;;;;;43.00;30.50;;;;;3.42;68.66;102501.28;5094224;27;45459;-77
2023/01/23 02:41:46;;;;;;;;;39.75;28.25;;;;;3.44;68.53;102499.53;5093559;27;47233;-77
2023/01/23 02:48:06;;;;;;;;;;;;;;;;;;;;;
2023/01/23 02:54:47;;;;;;;;;35.00;28.50;;;;;3.01;68.49;102462.88;4897413;28;45807;-77
2023/01/23 03:01:39;;;;;;;;;32.50;27.50;;;;;2.81;68.68;102423.38;4822654;29;45798;-77
2023/01/23 03:04:14;;;;;;;;;42.50;30.50;;;;;3.10;68.74;102470.53;4767833;29;45770;-77
2023/01/23 03:06:58;;;;;;;;;37.00;32.00;;;;;3.38;68.80;102522.91;4768015;29;46719;-77
2023/01/23 03:09:35;;;;;;;;;32.00;25.00;;;;;3.36;69.01;102522.06;4765925;29;46449;-76
2023/01/23 03:13:03;;;;;;;;;;;;;;;;;;;;;
2023/01/23 03:16:35;;;;;;;;;;;;;;;;;;;;;
2023/01/23 03:44:00;;;;;;;;;40.00;31.25;;;;;3.16;69.07;102467.03;5190794;22;25834710;-77
2023/01/23 03:46:25;;;;;;;;;36.50;24.00;;;;;3.17;68.88;102474.81;6339949;22;45635;-76
2023/01/23 03:48:50;;;;;;;;;36.50;28.75;;;;;3.45;68.68;102518.53;6341946;22;45542;-75
2023/01/23 03:51:16;;;;;;;;;39.75;30.00;;;;;3.39;68.99;102514.28;6342220;22;45970;-76
2023/01/23 03:53:41;;;;;;;;;41.25;29.50;;;;;3.17;69.03;102473.94;6310381;22;45677;-76
2023/01/23 03:56:07;;;;;;;;;39.00;31.75;;;;;3.41;68.97;102515.09;6311710;22;45650;-76
2023/01/23 03:58:32;;;;;;;;;38.25;31.25;;;;;3.42;68.99;102514.22;6339693;22;45471;-75
2023/01/23 04:01:02;;;;;;;;;36.00;29.50;;;;;3.35;68.89;102502.22;6336187;22;45813;-77
2023/01/23 04:03:27;;;;;;;;;31.75;27.50;;;;;3.42;69.13;102514.22;6338034;22;46278;-76
2023/01/23 04:05:57;;;;;;;;;35.33;29.67;;;;;3.42;68.97;102510.78;6337989;22;45747;-76
2023/01/23 04:08:23;;;;;;;;;35.25;26.75;;;;;3.35;69.09;102510.84;6338414;22;45976;-77
2023/01/23 04:10:48;;;;;;;;;30.25;25.50;;;;;3.40;69.08;102512.56;6338120;22;46264;-77
2023/01/23 04:13:14;;;;;;;;;30.50;23.50;;;;;3.41;69.14;102507.31;6310500;22;48006;-76
2023/01/23 04:15:39;;;;;;;;;33.50;28.75;;;;;3.41;68.87;102506.47;6337937;22;45938;-77
2023/01/23 04:25:18;;;;;;;;;43.50;28.00;;;;;3.08;68.86;102472.28;6003690;23;46110;-76
2023/01/23 04:27:43;;;;;;;;;34.75;29.50;;;;;3.33;69.30;102519.53;6005055;23;45610;-76
2023/01/23 04:58:12;;;;;;;;;35.50;30.50;;;;;3.19;69.51;102516.19;5714195;24;45691;-76
2023/01/23 05:00:38;;;;;;;;;39.00;28.00;;;;;3.19;69.68;102513.59;5725809;24;47169;-77
2023/01/23 05:03:03;;;;;;;;;28.00;21.50;;;;;3.27;69.40;102529.94;5820017;24;45859;-76
2023/01/23 05:05:30;;;;;;;;;42.25;29.25;;;;;3.20;69.74;102518.78;5859228;24;45706;-77
2023/01/23 05:07:55;;;;;;;;;33.75;30.00;;;;;3.28;69.87;102537.69;5864915;24;45904;-76
2023/01/23 05:10:20;;;;;;;;;44.50;35.00;;;;;3.26;69.91;102528.22;5967231;23;46397;-77
2023/01/23 05:12:46;;;;;;;;;34.25;25.50;;;;;3.21;69.86;102517.91;6069876;23;46204;-78
2023/01/23 05:15:11;;;;;;;;;25.50;22.50;;;;;3.28;69.93;102532.53;6291616;22;45704;-77
2023/01/23 05:17:37;;;;;;;;;31.00;21.50;;;;;3.28;69.72;102537.69;6303922;22;45647;-76
2023/01/23 05:20:03;;;;;;;;;43.25;31.75;;;;;3.29;69.73;102543.75;6300873;22;46256;-76
2023/01/23 05:23:16;;;;;;;;;;;;;;;;;;;;;
2023/01/23 05:26:41;;;;;;;;;;;;;;;;;;;;;
2023/01/23 05:32:30;;;;;;;;;33.25;24.25;;;;;3.07;69.92;102513.75;5874818;23;46053;-75
2023/01/23 05:38:55;;;;;;;;;32.25;23.50;;;;;3.31;69.81;102553.19;5858207;24;45884;-75
2023/01/23 05:45:24;;;;;;;;;;;;;;;;;;;;;
2023/01/23 06:02:21;;;;;;;;;;;;;;;;;;;;;
2023/01/23 06:04:47;;;;;;;;;21.25;15.75;;;;;3.23;69.97;102559.34;5705410;24;72498;-76
2023/01/23 06:07:28;;;;;;;;;40.25;29.75;;;;;2.89;69.85;102507.84;5778295;24;45923;-78
2023/01/23 06:12:53;;;;;;;;;36.75;25.75;;;;;3.15;69.76;102559.41;5859131;24;46072;-76
2023/01/23 06:15:18;;;;;;;;;33.25;28.25;;;;;3.22;69.88;102570.56;5842557;24;45963;-76
2023/01/23 06:17:44;;;;;;;;;24.00;22.00;;;;;3.31;69.89;102592.06;5832415;24;45860;-77
2023/01/23 06:20:11;;;;;;;;;22.00;19.50;;;;;3.29;69.73;102586.00;5907869;23;46300;-76
2023/01/23 06:22:36;;;;;;;;;37.00;27.00;;;;;3.24;69.95;102576.59;6037735;23;47062;-75
2023/01/23 06:25:26;;;;;;;;;;;;;;;;;;;;;
2023/01/23 06:28:54;;;;;;;;;41.00;28.50;;;;;3.07;69.48;102557.75;6116917;23;68515;-76
2023/01/23 06:31:40;;;;;;;;;29.00;23.50;;;;;2.95;69.60;102544.03;5996287;23;46365;-77
2023/01/23 06:34:43;;;;;;;;;;;;;;;;;;;;;
2023/01/23 06:37:32;;;;;;;;;19.75;16.25;;;;;3.34;69.28;102605.00;5969580;23;73554;-78
2023/01/23 06:41:36;;;;;;;;;28.00;23.50;;;;;3.09;69.51;102561.16;5886379;24;45802;-74
2023/01/23 06:44:24;;;;;;;;;21.00;15.25;;;;;3.31;69.37;102598.97;5883244;23;46347;-78
2023/01/23 06:46:51;;;;;;;;;24.75;19.75;;;;;2.69;69.42;102494.22;5915243;24;46114;-74
2023/01/23 06:49:17;;;;;;;;;23.25;22.00;;;;;3.32;69.31;102598.09;5919297;23;45600;-77
2023/01/23 06:51:42;;;;;;;;;27.50;19.25;;;;;3.21;69.21;102579.19;5942267;23;45635;-76
2023/01/23 06:54:08;;;;;;;;;26.25;22.25;;;;;3.33;69.29;102605.84;5916695;23;47366;-76
2023/01/23 06:56:33;;;;;;;;;25.50;20.25;;;;;3.33;69.10;102598.09;5943418;23;45967;-77
2023/01/23 06:59:08;;;;;;;;;26.00;21.00;;;;;3.06;68.94;102554.31;5941684;23;45756;-77
2023/01/23 07:01:38;;;;;;;;;33.50;23.00;;;;;2.99;69.13;102537.09;5918098;23;45708;-73
2023/01/23 07:04:04;;;;;;;;;28.50;20.00;;;;;3.37;68.70;102597.19;5944523;23;46498;-73
2023/01/23 07:06:30;;;;;;;;;33.75;24.75;;;;;2.91;69.01;102518.22;5995295;23;46160;-73
2023/01/23 07:08:55;;;;;;;;;24.00;19.00;;;;;2.95;69.10;102525.06;6160133;22;46147;-73
2023/01/23 07:11:20;;;;;;;;;24.25;19.00;;;;;3.39;69.22;102589.41;6202931;22;45735;-72
2023/01/23 07:13:46;;;;;;;;;39.25;27.75;;;;;3.13;69.58;102547.34;6203135;22;45804;-73
2023/01/23 07:16:11;;;;;;;;;32.50;22.00;;;;;3.40;69.10;102595.44;6214052;22;45873;-73
2023/01/23 07:18:37;;;;;;;;;29.50;25.50;;;;;3.35;69.17;102587.69;6298324;22;45517;-71
2023/01/23 07:21:05;;;;;;;;;30.25;23.25;;;;;3.33;69.06;102576.50;6297373;22;45699;-77
2023/01/23 07:23:30;;;;;;;;;22.50;19.25;;;;;3.40;69.22;102588.53;6297811;22;46465;-75
2023/01/23 07:26:00;;;;;;;;;31.50;25.75;;;;;3.41;69.14;102586.78;6297166;22;45729;-74
2023/01/23 07:28:26;;;;;;;;;32.50;22.50;;;;;3.40;69.15;102580.75;6298677;22;45484;-73
2023/01/23 07:30:51;;;;;;;;;29.50;21.00;;;;;3.47;69.26;102591.91;6270082;22;46428;-73
2023/01/23 07:33:17;;;;;;;;;28.75;23.75;;;;;3.46;69.03;102595.34;6297847;22;47286;-72
2023/01/23 07:35:42;;;;;;;;;33.25;25.00;;;;;3.50;69.07;102597.94;6297321;22;46937;-74
2023/01/23 07:38:07;;;;;;;;;34.00;25.75;;;;;3.53;69.09;102607.38;6297628;22;45787;-73
2023/01/23 07:40:37;;;;;;;;;30.25;25.75;;;;;3.53;68.81;102595.28;6297701;22;45888;-73
2023/01/23 07:43:03;;;;;;;;;28.75;23.25;;;;;3.53;68.79;102592.69;6298291;22;47522;-74
2023/01/23 07:45:29;;;;;;;;;35.50;25.25;;;;;3.56;68.93;102594.41;6327632;22;46343;-74
2023/01/23 07:47:54;;;;;;;;;27.00;22.00;;;;;3.62;68.87;102602.09;6301583;22;45864;-73
2023/01/23 07:50:20;;;;;;;;;30.25;24.75;;;;;3.65;68.71;102597.78;6328926;22;45530;-72
2023/01/23 07:52:45;;;;;;;;;35.00;25.50;;;;;3.66;68.82;102588.25;6329456;22;46412;-73
2023/01/23 07:55:10;;;;;;;;;26.75;20.00;;;;;3.66;68.65;102601.22;6328447;22;45708;-73
2023/01/23 07:57:37;;;;;;;;;31.75;28.50;;;;;3.66;68.30;102602.09;6304799;22;45707;-72
2023/01/23 08:00:04;;;;;;;;;35.00;24.00;;;;;3.67;68.54;102613.31;6331289;22;45556;-72
2023/01/23 08:02:29;;;;;;;;;26.50;25.00;;;;;3.67;68.49;102606.38;6330087;22;45647;-72
2023/01/23 08:04:54;;;;;;;;;33.75;25.00;;;;;3.58;68.35;102583.16;6301735;22;46229;-71
2023/01/23 08:07:20;;;;;;;;;32.00;23.25;;;;;3.70;68.71;102606.34;6330667;22;45506;-72
2023/01/23 08:09:45;;;;;;;;;29.00;22.00;;;;;3.68;68.52;102596.88;6329238;22;45584;-73
2023/01/23 08:12:11;;;;;;;;;30.00;24.75;;;;;3.73;68.32;102610.63;6328790;22;47611;-71
2023/01/23 08:14:38;;;;;;;;;34.75;28.50;;;;;3.72;68.52;102606.34;6329593;22;46142;-73
2023/01/23 08:17:04;;;;;;;;;28.00;24.25;;;;;3.69;68.25;102604.63;6330443;22;45541;-72
2023/01/23 08:19:29;;;;;;;;;34.75;28.50;;;;;3.71;68.29;102612.41;6302599;22;46326;-73
2023/01/23 08:21:54;;;;;;;;;39.50;22.50;;;;;3.71;68.33;102612.41;6329973;22;47344;-73
2023/01/23 08:24:20;;;;;;;;;36.00;29.75;;;;;3.70;68.36;102608.09;6330100;22;46189;-71
2023/01/23 08:26:45;;;;;;;;;33.25;25.50;;;;;3.70;68.47;102608.94;6330697;22;45532;-72
2023/01/23 08:29:11;;;;;;;;;29.00;21.50;;;;;3.64;68.37;102602.97;6330859;22;45757;-73
2023/01/23 08:31:38;;;;;;;;;25.00;20.50;;;;;3.70;68.46;102603.75;6331149;22;46377;-71
2023/01/23 08:34:03;;;;;;;;;31.50;22.00;;;;;3.66;68.54;102602.09;6330528;22;46576;-71
2023/01/23 08:36:29;;;;;;;;;37.25;27.75;;;;;3.73;68.49;102616.66;6329981;22;45472;-73
2023/01/23 08:38:54;;;;;;;;;24.75;22.00;;;;;3.73;68.21;102603.72;6330248;22;45724;-72
2023/01/23 08:41:22;;;;;;;;;30.25;25.50;;;;;3.74;68.30;102612.34;6330407;22;45692;-72
2023/01/23 08:43:48;;;;;;;;;30.75;23.75;;;;;3.74;68.33;102604.56;6331319;22;46018;-73
2023/01/23 08:46:13;;;;;;;;;32.75;29.00;;;;;3.75;68.33;102609.75;6329082;22;45861;-73
2023/01/23 08:48:42;;;;;;;;;38.25;30.25;;;;;3.77;68.17;102608.00;6331424;22;45940;-73
2023/01/23 08:51:11;;;;;;;;;30.75;24.25;;;;;3.68;68.53;102599.44;6329699;22;46741;-73
2023/01/23 08:53:37;;;;;;;;;30.75;26.50;;;;;3.77;68.09;102612.34;6303911;22;47099;-72
2023/01/23 08:56:06;;;;;;;;;30.50;24.75;;;;;3.77;68.44;102620.09;6302918;22;45875;-71
2023/01/23 08:58:31;;;;;;;;;32.50;25.25;;;;;3.65;68.35;102583.94;6330936;22;45841;-73
2023/01/23 09:00:56;;;;;;;;;34.75;26.50;;;;;3.64;68.33;102577.91;6330341;22;46674;-71
2023/01/23 09:03:25;;;;;;;;;35.00;30.25;;;;;3.63;68.53;102568.41;6331766;22;45656;-73
2023/01/23 09:05:52;;;;;;;;;52.75;36.00;;;;;3.27;68.31;102504.03;6330575;22;45698;-72
2023/01/23 09:08:17;;;;;;;;;39.50;29.50;;;;;3.80;68.38;102595.00;6330840;22;45659;-71
2023/01/23 09:10:43;;;;;;;;;36.25;28.00;;;;;3.79;68.28;102597.59;6330358;22;47455;-73
2023/01/23 09:13:10;;;;;;;;;27.75;25.75;;;;;3.78;68.09;102596.75;6331457;22;45996;-71
2023/01/23 09:15:39;;;;;;;;;32.50;29.00;;;;;3.74;68.53;102587.28;6302428;22;45884;-73
2023/01/23 09:18:05;;;;;;;;;26.75;22.75;;;;;3.87;68.31;102623.47;6330937;22;45668;-72
2023/01/23 09:20:30;;;;;;;;;33.75;26.25;;;;;3.85;68.28;102613.09;6330028;22;46208;-72
2023/01/23 09:22:55;;;;;;;;;28.25;21.75;;;;;3.86;67.90;102616.53;6330697;22;46076;-72
2023/01/23 09:25:21;;;;;;;;;35.00;24.00;;;;;3.86;68.26;102619.13;6301935;22;46065;-72
2023/01/23 09:27:46;;;;;;;;;37.25;29.75;;;;;3.85;68.00;102614.81;6331393;22;45660;-72
2023/01/23 09:30:12;;;;;;;;;33.00;23.50;;;;;3.86;67.91;102619.13;6332683;22;46082;-73
2023/01/23 09:32:38;;;;;;;;;27.00;22.00;;;;;3.89;67.96;102624.31;6332218;22;46903;-71
2023/01/23 09:35:03;;;;;;;;;36.25;30.00;;;;;3.88;68.18;102626.03;6332688;22;45961;-73
2023/01/23 09:37:58;;;;;;;;;34.00;26.25;;;;;3.90;67.80;102633.78;6328936;22;46168;-72
2023/01/23 09:40:22;;;;;;;;;29.50;23.50;;;;;3.83;68.08;102619.19;6328875;22;45928;-72
2023/01/23 09:42:49;;;;;;;;;37.75;31.25;;;;;3.92;67.74;102642.41;6302658;22;46664;-71
2023/01/23 09:45:19;;;;;;;;;31.00;27.50;;;;;3.93;68.17;102649.31;6329708;22;45870;-72
2023/01/23 09:48:09;;;;;;;;;38.00;29.25;;;;;3.95;67.88;102660.50;6331449;22;45602;-73
2023/01/23 09:50:51;;;;;;;;;21.75;19.00;;;;;3.93;68.09;102649.31;6329674;22;46330;-72
2023/01/23 09:53:21;;;;;;;;;36.25;28.75;;;;;3.90;67.75;102649.34;6330870;22;46212;-71
2023/01/23 09:55:56;;;;;;;;;30.25;24.00;;;;;3.95;67.94;102648.41;6301789;22;45974;-72
2023/01/23 09:58:33;;;;;;;;;28.75;26.50;;;;;3.94;67.94;102651.88;6329920;22;45581;-72
2023/01/23 10:00:59;;;;;;;;;34.50;23.75;;;;;3.89;67.82;102656.25;6302194;22;48382;-71
2023/01/23 10:03:30;;;;;;;;;26.00;23.00;;;;;3.95;67.76;102669.16;6330003;22;46327;-71
2023/01/23 10:06:14;;;;;;;;;32.00;26.25;;;;;3.94;68.08;102662.25;6329855;22;45518;-71
2023/01/23 10:08:48;;;;;;;;;28.50;24.50;;;;;3.93;68.09;102659.69;6330585;22;45855;-71
2023/01/23 10:11:29;;;;;;;;;35.00;23.00;;;;;3.92;67.80;102666.59;6329524;22;46501;-72
2023/01/23 10:14:28;;;;;;;;;34.25;24.00;;;;;3.95;68.12;102678.66;6329792;22;46144;-71
2023/01/23 10:17:18;;;;;;;;;38.25;24.25;;;;;3.96;67.75;102668.28;6302632;22;45609;-73
2023/01/23 10:19:58;;;;;;;;;32.00;29.25;;;;;3.97;67.92;102677.78;6329686;22;45729;-73
2023/01/23 10:23:01;;;;;;;;;33.00;26.00;;;;;3.97;67.64;102684.72;6328921;22;47196;-72
2023/01/23 10:25:31;;;;;;;;;28.25;18.50;;;;;3.97;67.54;102669.16;6328933;22;46287;-72
2023/01/23 10:28:19;;;;;;;;;35.25;26.00;;;;;3.90;68.00;102654.53;6330868;22;45898;-72
2023/01/23 10:30:54;;;;;;;;;34.50;23.50;;;;;3.98;67.74;102670.88;6301747;22;45957;-73
2023/01/23 10:33:19;;;;;;;;;32.50;24.00;;;;;3.93;67.61;102670.94;6328502;22;48323;-73
2023/01/23 10:35:52;;;;;;;;;30.75;28.25;;;;;3.95;67.87;102661.38;6301563;22;46123;-72
2023/01/23 10:38:38;;;;;;;;;30.75;22.75;;;;;4.02;67.99;102678.59;6330131;22;45546;-71
2023/01/23 10:41:20;;;;;;;;;30.00;21.25;;;;;4.05;68.06;102662.16;6330439;22;45506;-72
2023/01/23 10:43:48;;;;;;;;;28.50;24.75;;;;;4.08;67.53;102659.53;6329163;22;45594;-73
2023/01/23 10:46:20;;;;;;;;;25.50;22.75;;;;;4.10;67.70;102671.56;6329493;22;46942;-72
2023/01/23 10:48:50;;;;;;;;;29.50;24.00;;;;;4.12;67.81;102668.97;6329817;22;45529;-71
2023/01/23 10:51:31;;;;;;;;;39.75;24.25;;;;;4.12;67.83;102659.47;6327864;22;45958;-73
2023/01/23 10:54:06;;;;;;;;;25.25;20.00;;;;;4.15;67.75;102663.78;6329854;22;45619;-74
2023/01/23 10:56:36;;;;;;;;;24.50;20.00;;;;;3.73;67.22;102601.13;6330534;22;46078;-73
2023/01/23 10:59:04;;;;;;;;;31.25;25.00;;;;;3.79;67.29;102595.88;6330203;22;45657;-74
2023/01/23 11:01:35;;;;;;;;;30.50;26.50;;;;;3.84;67.52;102605.31;6330900;22;46141;-73
2023/01/23 11:04:19;;;;;;;;;17.25;13.00;;;;;3.90;67.14;102613.03;6301959;22;46515;-73
2023/01/23 11:07:03;;;;;;;;;31.25;27.00;;;;;4.14;67.61;102652.53;6329622;22;45768;-72
2023/01/23 11:09:30;;;;;;;;;30.50;25.00;;;;;4.15;67.42;102645.63;6330333;22;45868;-72
2023/01/23 11:12:05;;;;;;;;;30.25;23.75;;;;;4.15;67.11;102653.41;6329845;22;46132;-73
2023/01/23 11:14:31;;;;;;;;;27.25;20.00;;;;;4.14;67.09;102639.56;6329837;22;47374;-72
2023/01/23 11:17:03;;;;;;;;;29.75;26.25;;;;;4.18;67.22;102641.25;6330359;22;45809;-73
2023/01/23 11:19:31;;;;;;;;;30.00;26.00;;;;;4.21;66.89;102648.97;6301577;22;45540;-72
2023/01/23 11:21:59;;;;;;;;;29.75;24.50;;;;;4.19;67.26;102639.50;6329423;22;45619;-72
2023/01/23 11:24:24;;;;;;;;;25.00;22.00;;;;;4.21;67.15;102636.00;6329426;22;47079;-73
2023/01/23 11:27:01;;;;;;;;;23.00;19.67;;;;;4.18;66.96;102630.88;6330009;22;45945;-72
2023/01/23 11:29:29;;;;;;;;;28.75;21.25;;;;;4.19;66.84;102632.59;6329160;22;45628;-72
2023/01/23 11:32:01;;;;;;;;;23.00;19.25;;;;;4.23;66.77;102629.06;6329531;22;45862;-72
2023/01/23 11:34:35;;;;;;;;;19.50;16.50;;;;;4.17;66.84;102616.16;6302610;22;46169;-71
2023/01/23 11:37:11;;;;;;;;;20.00;13.00;;;;;4.27;66.43;102629.00;6330013;22;46512;-72
2023/01/23 11:39:46;;;;;;;;;28.75;26.50;;;;;4.29;66.66;102627.28;6330057;22;45717;-72
2023/01/23 11:42:13;;;;;;;;;30.50;23.25;;;;;4.30;66.65;102621.22;6330107;22;45732;-73
2023/01/23 11:44:41;;;;;;;;;24.25;18.75;;;;;4.34;66.56;102621.16;6329546;22;46567;-73
2023/01/23 11:47:54;;;;;;;;;36.50;26.75;;;;;4.36;66.33;102616.81;6329602;22;46166;-70
2023/01/23 11:50:39;;;;;;;;;31.25;26.00;;;;;4.40;66.45;102615.88;6201928;22;45875;-71
2023/01/23 11:53:23;;;;;;;;;28.25;23.25;;;;;4.41;66.76;102611.56;6203693;22;45770;-72
2023/01/23 11:56:05;;;;;;;;;24.75;16.75;;;;;4.47;66.24;102595.91;6203725;22;45766;-72
2023/01/23 11:58:59;;;;;;;;;20.50;17.75;;;;;4.49;65.60;102600.19;6204128;22;45593;-73
2023/01/23 12:01:52;;;;;;;;;17.75;15.00;;;;;4.51;65.69;102579.41;6203968;22;45972;-73
2023/01/23 12:04:20;;;;;;;;;24.75;21.50;;;;;4.51;65.76;102579.41;6203919;22;45613;-72
2023/01/23 12:07:06;;;;;;;;;26.50;19.00;;;;;4.50;65.54;102586.34;6203359;22;46396;-73
2023/01/23 12:09:58;;;;;;;;;21.50;19.50;;;;;4.53;65.35;102599.28;6203784;22;46299;-72
2023/01/23 12:13:29;;;;;;;;;21.25;16.50;;;;;4.54;65.76;102574.16;6084252;23;45599;-73
2023/01/23 12:16:20;;;;;;;;;18.75;17.00;;;;;4.46;65.27;102556.13;6002522;23;45976;-74
2023/01/23 12:18:53;;;;;;;;;17.50;13.50;;;;;4.56;65.33;102569.81;6026280;23;45761;-73
2023/01/23 12:21:44;;;;;;;;;20.50;18.00;;;;;4.54;65.61;102559.44;6026367;23;45979;-73
2023/01/23 12:24:28;;;;;;;;;22.00;17.50;;;;;4.53;65.21;102560.34;6076555;23;45724;-72
2023/01/23 12:27:06;;;;;;;;;26.00;20.00;;;;;4.50;65.37;102560.38;6144991;23;45732;-73
2023/01/23 12:29:45;;;;;;;;;19.75;16.50;;;;;4.53;65.05;102559.50;6145322;23;46385;-72
2023/01/23 12:32:43;;;;;;;;;22.50;19.75;;;;;4.55;65.08;102558.56;6143144;23;46320;-73
2023/01/23 12:35:23;;;;;;;;;18.50;16.25;;;;;4.54;65.05;102559.44;6055216;23;45591;-71
2023/01/23 12:38:10;;;;;;;;;22.00;18.00;;;;;4.53;65.13;102555.16;6055466;23;46032;-71
2023/01/23 12:40:47;;;;;;;;;19.50;17.50;;;;;4.51;64.74;102551.72;6055463;23;46418;-71
2023/01/23 12:43:22;;;;;;;;;15.00;14.00;;;;;4.50;64.90;102551.72;6054834;23;46180;-71
2023/01/23 12:45:56;;;;;;;;;24.25;17.50;;;;;4.47;64.80;102544.88;6064173;23;45938;-72
2023/01/23 12:48:29;;;;;;;;;23.00;15.25;;;;;4.46;64.84;102540.56;6093378;22;46114;-72
2023/01/23 12:51:13;;;;;;;;;24.25;19.75;;;;;4.47;65.03;102534.50;6203330;22;45940;-73
2023/01/23 12:53:40;;;;;;;;;30.50;20.25;;;;;4.42;65.19;102528.50;6203147;22;47226;-72
2023/01/23 12:56:15;;;;;;;;;21.50;20.00;;;;;4.45;64.89;102543.16;6203585;22;45600;-73
2023/01/23 12:58:46;;;;;;;;;29.75;24.25;;;;;4.49;65.04;102534.44;6202539;22;45750;-72
2023/01/23 13:01:33;;;;;;;;;26.25;22.75;;;;;4.48;65.21;102540.53;6202039;22;47150;-72
2023/01/23 13:04:17;;;;;;;;;21.75;21.25;;;;;4.45;65.36;102541.44;6202638;22;46172;-72
2023/01/23 13:07:20;;;;;;;;;26.00;19.00;;;;;4.44;65.36;102539.69;6203979;22;45613;-72
2023/01/23 13:10:15;;;;;;;;;23.00;18.25;;;;;4.46;65.05;102545.75;6202544;22;46040;-73
2023/01/23 13:12:41;;;;;;;;;24.50;20.00;;;;;4.46;65.48;102544.88;6325620;22;45752;-72
2023/01/23 13:15:33;;;;;;;;;25.50;20.75;;;;;4.49;65.39;102548.28;6329534;22;47848;-73
2023/01/23 13:18:00;;;;;;;;;26.50;18.25;;;;;4.42;64.91;102530.25;6309701;22;45826;-72
2023/01/23 13:23:36;;;;;;;;;24.25;19.50;;;;;4.53;65.08;102523.16;6330250;22;45848;-72
2023/01/23 13:26:14;;;;;;;;;24.50;17.25;;;;;4.59;65.21;102539.47;6330850;22;46545;-71
2023/01/23 13:28:41;;;;;;;;;20.00;17.00;;;;;4.60;64.63;102537.72;6331809;22;46296;-72
2023/01/23 13:31:40;;;;;;;;;27.25;18.75;;;;;4.60;64.73;102532.53;6331312;22;45565;-73
2023/01/23 13:34:15;;;;;;;;;25.75;18.00;;;;;4.65;64.86;102533.31;6330200;22;47340;-72
2023/01/23 13:36:44;;;;;;;;;20.00;17.50;;;;;4.68;64.41;102546.28;6331025;22;46044;-74
2023/01/23 13:39:15;;;;;;;;;17.50;14.50;;;;;4.67;64.34;102528.97;6330155;22;45600;-72
2023/01/23 13:41:42;;;;;;;;;17.00;16.00;;;;;4.68;64.49;102530.69;6301789;22;45896;-73
2023/01/23 13:44:27;;;;;;;;;20.25;16.75;;;;;4.64;64.50;102522.09;6329339;22;47580;-71
2023/01/23 13:50:13;;;;;;;;;22.50;15.25;;;;;4.71;64.28;102538.44;6329545;22;45550;-71
2023/01/23 13:58:28;;;;;;;;;18.00;15.25;;;;;4.75;64.21;102527.09;6330622;22;46755;-72
2023/01/23 14:06:35;;;;;;;;;21.75;14.75;;;;;4.78;63.91;102534.88;6330277;22;45557;-71
2023/01/23 14:09:00;;;;;;;;;15.00;14.00;;;;;4.79;64.19;102534.00;6329863;22;46356;-72
2023/01/23 14:11:36;;;;;;;;;20.75;17.00;;;;;4.80;63.87;102532.25;6329570;22;45789;-71
2023/01/23 14:16:48;;;;;;;;;24.25;21.00;;;;;4.80;63.62;102538.31;6330202;22;46111;-73
2023/01/23 14:19:26;;;;;;;;;22.00;15.25;;;;;4.79;63.36;102538.31;6330411;22;46129;-72
2023/01/23 14:22:02;;;;;;;;;17.75;14.75;;;;;4.77;63.56;102530.53;6330123;22;45636;-72